CYQL

Lethbridge County Airport

Lethbridge, Alberta, Canada
METAR CYQL 211500Z 23006KT 60SM FEW080 BKN140 08/M00 A2989 RMK AC1AC5 SLP135 DENSITY ALT 3100FT
Observed Flight Rules
Apr-21 @ 15:00 UTC (38 minutes ago) Visual Flight Rules
Wind Visibility Clouds
230° at 6 knots 60 miles
  • Few at 8,000' AGL
  • Broken at 14,000' AGL
Temperatures Readings
Current 8°C / 46°F
Dewpoint 0°C / 32°F
Humidity 57%
Altimeter 29.89" Hg
Pressure 1013.5 hPa
Elevation 929
METAR CYQL 211500Z 23006KT 60SM FEW080 BKN140 08/M00 A2989 RMK AC1AC5 SLP135 DENSITY ALT 3100FT
Observed Flight Rules
Apr-21 @ 15:00 UTC
(38 minutes ago)
VFR
Wind Visibility
230° at 6 knots 60 miles
Clouds
  • Few at 8,000' AGL
  • Broken at 14,000' AGL
Temperature Dewpoint
8°C / 46°F 0°C / 32°F
Humidity Altimeter Pressure
57% 29.89" Hg 1013.5 hPa